sensor_id;sensor_type;location;lat;lon;timestamp;temperature;humidity
4215;DHT22;2121;48.062;7.850;2022-07-06T00:01:51;16.20;93.90
4215;DHT22;2121;48.062;7.850;2022-07-06T00:04:18;16.20;94.20
4215;DHT22;2121;48.062;7.850;2022-07-06T00:06:44;16.20;94.40
4215;DHT22;2121;48.062;7.850;2022-07-06T00:09:10;16.20;94.40
4215;DHT22;2121;48.062;7.850;2022-07-06T00:11:37;16.20;94.20
4215;DHT22;2121;48.062;7.850;2022-07-06T00:14:03;16.20;94.60
4215;DHT22;2121;48.062;7.850;2022-07-06T00:16:29;16.20;95.10
4215;DHT22;2121;48.062;7.850;2022-07-06T00:18:55;16.20;95.30
4215;DHT22;2121;48.062;7.850;2022-07-06T00:21:21;16.20;95.00
4215;DHT22;2121;48.062;7.850;2022-07-06T00:23:47;16.10;95.30
4215;DHT22;2121;48.062;7.850;2022-07-06T00:26:13;16.00;95.50
4215;DHT22;2121;48.062;7.850;2022-07-06T00:28:39;15.90;96.00
4215;DHT22;2121;48.062;7.850;2022-07-06T00:31:05;15.80;96.30
4215;DHT22;2121;48.062;7.850;2022-07-06T00:33:31;15.70;96.70
4215;DHT22;2121;48.062;7.850;2022-07-06T00:35:58;15.70;97.00
4215;DHT22;2121;48.062;7.850;2022-07-06T00:38:24;15.70;97.10
4215;DHT22;2121;48.062;7.850;2022-07-06T00:40:49;15.60;97.10
4215;DHT22;2121;48.062;7.850;2022-07-06T00:43:15;15.60;97.60
4215;DHT22;2121;48.062;7.850;2022-07-06T00:45:41;15.60;97.90
4215;DHT22;2121;48.062;7.850;2022-07-06T00:48:07;15.50;97.60
4215;DHT22;2121;48.062;7.850;2022-07-06T00:50:33;15.50;98.00
4215;DHT22;2121;48.062;7.850;2022-07-06T00:53:05;15.30;98.10
4215;DHT22;2121;48.062;7.850;2022-07-06T00:55:35;15.20;98.50
4215;DHT22;2121;48.062;7.850;2022-07-06T00:58:07;15.20;99.10
4215;DHT22;2121;48.062;7.850;2022-07-06T01:00:34;15.30;99.50
4215;DHT22;2121;48.062;7.850;2022-07-06T01:03:01;15.30;99.90
4215;DHT22;2121;48.062;7.850;2022-07-06T01:05:27;15.20;99.90
4215;DHT22;2121;48.062;7.850;2022-07-06T01:07:54;15.20;99.90
4215;DHT22;2121;48.062;7.850;2022-07-06T01:10:20;15.10;99.90
4215;DHT22;2121;48.062;7.850;2022-07-06T01:12:47;15.00;99.90
4215;DHT22;2121;48.062;7.850;2022-07-06T01:15:16;14.90;99.90
4215;DHT22;2121;48.062;7.850;2022-07-06T01:17:43;14.80;99.90
4215;DHT22;2121;48.062;7.850;2022-07-06T01:22:46;14.60;99.90
4215;DHT22;2121;48.062;7.850;2022-07-06T01:25:13;14.50;99.90
4215;DHT22;2121;48.062;7.850;2022-07-06T01:27:40;14.60;99.90
4215;DHT22;2121;48.062;7.850;2022-07-06T01:30:13;14.70;99.90
4215;DHT22;2121;48.062;7.850;2022-07-06T01:32:41;14.60;99.90
4215;DHT22;2121;48.062;7.850;2022-07-06T01:35:11;14.70;99.90
4215;DHT22;2121;48.062;7.850;2022-07-06T01:37:38;14.70;99.90
4215;DHT22;2121;48.062;7.850;2022-07-06T01:40:07;14.60;99.90
4215;DHT22;2121;48.062;7.850;2022-07-06T01:42:34;14.50;99.90
4215;DHT22;2121;48.062;7.850;2022-07-06T01:45:02;14.40;99.90
4215;DHT22;2121;48.062;7.850;2022-07-06T01:47:29;14.40;99.90
4215;DHT22;2121;48.062;7.850;2022-07-06T01:49:58;14.20;99.90
4215;DHT22;2121;48.062;7.850;2022-07-06T01:52:25;14.20;99.90
4215;DHT22;2121;48.062;7.850;2022-07-06T01:54:51;14.20;99.90
4215;DHT22;2121;48.062;7.850;2022-07-06T01:57:17;14.20;99.90
4215;DHT22;2121;48.062;7.850;2022-07-06T01:59:43;14.10;99.90
4215;DHT22;2121;48.062;7.850;2022-07-06T02:02:09;13.90;99.90
4215;DHT22;2121;48.062;7.850;2022-07-06T02:04:35;13.80;99.90
4215;DHT22;2121;48.062;7.850;2022-07-06T02:07:00;13.80;99.90
4215;DHT22;2121;48.062;7.850;2022-07-06T02:09:27;13.80;99.90
4215;DHT22;2121;48.062;7.850;2022-07-06T02:11:52;13.70;99.90
4215;DHT22;2121;48.062;7.850;2022-07-06T02:14:18;13.60;99.90
4215;DHT22;2121;48.062;7.850;2022-07-06T02:16:44;13.70;99.90
4215;DHT22;2121;48.062;7.850;2022-07-06T02:19:10;13.70;99.90
4215;DHT22;2121;48.062;7.850;2022-07-06T02:21:36;13.80;99.90
4215;DHT22;2121;48.062;7.850;2022-07-06T02:24:02;13.60;99.90
4215;DHT22;2121;48.062;7.850;2022-07-06T02:26:28;13.60;99.90
4215;DHT22;2121;48.062;7.850;2022-07-06T02:28:53;13.50;99.90
4215;DHT22;2121;48.062;7.850;2022-07-06T02:31:19;13.40;99.90
4215;DHT22;2121;48.062;7.850;2022-07-06T02:33:45;13.40;99.90
4215;DHT22;2121;48.062;7.850;2022-07-06T02:36:11;13.40;99.90
4215;DHT22;2121;48.062;7.850;2022-07-06T02:38:36;13.40;99.90
4215;DHT22;2121;48.062;7.850;2022-07-06T02:41:02;13.40;99.90
4215;DHT22;2121;48.062;7.850;2022-07-06T02:43:28;13.40;99.90
4215;DHT22;2121;48.062;7.850;2022-07-06T02:45:54;13.40;99.90
4215;DHT22;2121;48.062;7.850;2022-07-06T02:48:19;13.30;99.90
4215;DHT22;2121;48.062;7.850;2022-07-06T02:50:47;13.40;99.90
4215;DHT22;2121;48.062;7.850;2022-07-06T02:53:13;13.30;99.90
4215;DHT22;2121;48.062;7.850;2022-07-06T02:55:38;13.20;99.90
4215;DHT22;2121;48.062;7.850;2022-07-06T02:58:04;13.10;99.90
4215;DHT22;2121;48.062;7.850;2022-07-06T03:00:30;13.00;99.90
4215;DHT22;2121;48.062;7.850;2022-07-06T03:02:56;13.00;99.90
4215;DHT22;2121;48.062;7.850;2022-07-06T03:05:21;12.90;99.90
4215;DHT22;2121;48.062;7.850;2022-07-06T03:07:48;13.10;99.90
4215;DHT22;2121;48.062;7.850;2022-07-06T03:10:13;13.20;99.90
4215;DHT22;2121;48.062;7.850;2022-07-06T03:12:39;13.20;99.90
4215;DHT22;2121;48.062;7.850;2022-07-06T03:15:05;13.20;99.90
4215;DHT22;2121;48.062;7.850;2022-07-06T03:17:31;13.20;99.90
4215;DHT22;2121;48.062;7.850;2022-07-06T03:19:57;13.10;99.90
4215;DHT22;2121;48.062;7.850;2022-07-06T03:22:23;13.00;99.90
4215;DHT22;2121;48.062;7.850;2022-07-06T03:24:48;12.90;99.90
4215;DHT22;2121;48.062;7.850;2022-07-06T03:27:15;12.80;99.90
4215;DHT22;2121;48.062;7.850;2022-07-06T03:29:40;12.80;99.90
4215;DHT22;2121;48.062;7.850;2022-07-06T03:32:06;12.80;99.90
4215;DHT22;2121;48.062;7.850;2022-07-06T03:34:32;12.80;99.90
4215;DHT22;2121;48.062;7.850;2022-07-06T03:36:58;12.90;99.90
4215;DHT22;2121;48.062;7.850;2022-07-06T03:39:24;12.90;99.90
4215;DHT22;2121;48.062;7.850;2022-07-06T03:41:49;13.00;99.90
4215;DHT22;2121;48.062;7.850;2022-07-06T03:44:15;13.00;99.90
4215;DHT22;2121;48.062;7.850;2022-07-06T03:46:41;13.00;99.90
4215;DHT22;2121;48.062;7.850;2022-07-06T03:49:07;13.00;99.90
4215;DHT22;2121;48.062;7.850;2022-07-06T03:51:32;12.80;99.90
4215;DHT22;2121;48.062;7.850;2022-07-06T03:53:58;12.60;99.90
4215;DHT22;2121;48.062;7.850;2022-07-06T03:56:24;12.60;99.90
4215;DHT22;2121;48.062;7.850;2022-07-06T03:59:00;12.60;99.90
4215;DHT22;2121;48.062;7.850;2022-07-06T04:01:27;12.60;99.90
4215;DHT22;2121;48.062;7.850;2022-07-06T04:03:53;12.70;99.90
4215;DHT22;2121;48.062;7.850;2022-07-06T04:06:19;12.60;99.90
4215;DHT22;2121;48.062;7.850;2022-07-06T04:08:45;12.60;99.90
4215;DHT22;2121;48.062;7.850;2022-07-06T04:11:11;12.60;99.90
4215;DHT22;2121;48.062;7.850;2022-07-06T04:13:37;12.50;99.90
4215;DHT22;2121;48.062;7.850;2022-07-06T04:16:05;12.50;99.90
4215;DHT22;2121;48.062;7.850;2022-07-06T04:18:31;12.60;99.90
4215;DHT22;2121;48.062;7.850;2022-07-06T04:20:57;12.50;99.90
4215;DHT22;2121;48.062;7.850;2022-07-06T04:23:24;12.60;99.90
4215;DHT22;2121;48.062;7.850;2022-07-06T04:25:50;12.70;99.90
4215;DHT22;2121;48.062;7.850;2022-07-06T04:28:16;12.70;99.90
4215;DHT22;2121;48.062;7.850;2022-07-06T04:30:42;12.90;99.90
4215;DHT22;2121;48.062;7.850;2022-07-06T04:33:08;13.00;99.90
4215;DHT22;2121;48.062;7.850;2022-07-06T04:35:34;13.10;99.90
4215;DHT22;2121;48.062;7.850;2022-07-06T04:37:59;13.30;99.90
4215;DHT22;2121;48.062;7.850;2022-07-06T04:40:25;13.40;99.90
4215;DHT22;2121;48.062;7.850;2022-07-06T04:42:51;13.50;99.90
4215;DHT22;2121;48.062;7.850;2022-07-06T04:45:17;13.50;99.90
4215;DHT22;2121;48.062;7.850;2022-07-06T04:47:43;13.50;99.90
4215;DHT22;2121;48.062;7.850;2022-07-06T04:50:09;13.60;99.90
4215;DHT22;2121;48.062;7.850;2022-07-06T04:52:35;13.60;99.90
4215;DHT22;2121;48.062;7.850;2022-07-06T04:55:01;13.70;99.90
4215;DHT22;2121;48.062;7.850;2022-07-06T04:57:27;13.80;99.90
4215;DHT22;2121;48.062;7.850;2022-07-06T04:59:55;13.90;99.90
4215;DHT22;2121;48.062;7.850;2022-07-06T05:02:21;14.00;99.90
4215;DHT22;2121;48.062;7.850;2022-07-06T05:04:47;14.10;99.90
4215;DHT22;2121;48.062;7.850;2022-07-06T05:07:13;14.20;99.90
4215;DHT22;2121;48.062;7.850;2022-07-06T05:09:39;14.30;99.90
4215;DHT22;2121;48.062;7.850;2022-07-06T05:12:05;14.50;99.90
4215;DHT22;2121;48.062;7.850;2022-07-06T05:14:31;14.60;99.90
4215;DHT22;2121;48.062;7.850;2022-07-06T05:16:56;14.80;99.90
4215;DHT22;2121;48.062;7.850;2022-07-06T05:19:22;14.90;99.90
4215;DHT22;2121;48.062;7.850;2022-07-06T05:21:48;15.00;99.90
4215;DHT22;2121;48.062;7.850;2022-07-06T05:24:14;15.00;99.90
4215;DHT22;2121;48.062;7.850;2022-07-06T05:26:41;15.20;99.90
4215;DHT22;2121;48.062;7.850;2022-07-06T05:29:07;15.20;99.90
4215;DHT22;2121;48.062;7.850;2022-07-06T05:31:33;15.30;99.90
4215;DHT22;2121;48.062;7.850;2022-07-06T05:33:59;15.40;99.90
4215;DHT22;2121;48.062;7.850;2022-07-06T05:36:24;15.40;99.90
4215;DHT22;2121;48.062;7.850;2022-07-06T05:38:50;15.40;99.90
4215;DHT22;2121;48.062;7.850;2022-07-06T05:41:16;15.40;99.90
4215;DHT22;2121;48.062;7.850;2022-07-06T05:43:42;15.50;99.90
4215;DHT22;2121;48.062;7.850;2022-07-06T05:46:08;15.70;99.90
4215;DHT22;2121;48.062;7.850;2022-07-06T05:48:33;15.80;99.90
4215;DHT22;2121;48.062;7.850;2022-07-06T05:51:17;15.90;99.90
4215;DHT22;2121;48.062;7.850;2022-07-06T05:53:43;15.90;99.90
4215;DHT22;2121;48.062;7.850;2022-07-06T05:56:09;16.00;99.90
4215;DHT22;2121;48.062;7.850;2022-07-06T05:58:35;16.00;99.90
4215;DHT22;2121;48.062;7.850;2022-07-06T06:01:01;16.20;99.90
4215;DHT22;2121;48.062;7.850;2022-07-06T06:03:26;16.30;99.90
4215;DHT22;2121;48.062;7.850;2022-07-06T06:05:52;16.50;99.90
4215;DHT22;2121;48.062;7.850;2022-07-06T06:08:18;16.40;99.90
4215;DHT22;2121;48.062;7.850;2022-07-06T06:10:44;16.50;99.90
4215;DHT22;2121;48.062;7.850;2022-07-06T06:13:09;16.50;99.90
4215;DHT22;2121;48.062;7.850;2022-07-06T06:15:35;16.50;99.90
4215;DHT22;2121;48.062;7.850;2022-07-06T06:18:01;16.70;99.90
4215;DHT22;2121;48.062;7.850;2022-07-06T06:20:29;16.80;99.90
4215;DHT22;2121;48.062;7.850;2022-07-06T06:22:57;17.10;99.90
4215;DHT22;2121;48.062;7.850;2022-07-06T06:25:31;17.20;99.90
4215;DHT22;2121;48.062;7.850;2022-07-06T06:27:58;17.00;99.90
4215;DHT22;2121;48.062;7.850;2022-07-06T06:30:24;17.00;99.90
4215;DHT22;2121;48.062;7.850;2022-07-06T06:32:51;17.10;99.90
4215;DHT22;2121;48.062;7.850;2022-07-06T06:35:17;17.20;99.90
4215;DHT22;2121;48.062;7.850;2022-07-06T06:37:43;17.40;99.90
4215;DHT22;2121;48.062;7.850;2022-07-06T06:40:09;17.50;99.90
4215;DHT22;2121;48.062;7.850;2022-07-06T06:42:36;17.60;99.90
4215;DHT22;2121;48.062;7.850;2022-07-06T06:45:03;17.70;99.90
4215;DHT22;2121;48.062;7.850;2022-07-06T06:47:30;17.70;99.90
4215;DHT22;2121;48.062;7.850;2022-07-06T06:49:56;17.70;99.90
4215;DHT22;2121;48.062;7.850;2022-07-06T06:52:21;17.80;99.90
4215;DHT22;2121;48.062;7.850;2022-07-06T06:54:47;18.00;99.90
4215;DHT22;2121;48.062;7.850;2022-07-06T06:57:13;18.10;99.90
4215;DHT22;2121;48.062;7.850;2022-07-06T06:59:39;18.10;99.90
4215;DHT22;2121;48.062;7.850;2022-07-06T07:02:04;18.00;99.90
4215;DHT22;2121;48.062;7.850;2022-07-06T07:04:30;18.20;99.90
4215;DHT22;2121;48.062;7.850;2022-07-06T07:06:56;18.30;99.90
4215;DHT22;2121;48.062;7.850;2022-07-06T07:09:22;18.30;99.90
4215;DHT22;2121;48.062;7.850;2022-07-06T07:11:48;18.40;99.90
4215;DHT22;2121;48.062;7.850;2022-07-06T07:14:14;18.40;99.90
4215;DHT22;2121;48.062;7.850;2022-07-06T07:16:39;18.40;99.90
4215;DHT22;2121;48.062;7.850;2022-07-06T07:19:05;18.50;99.90
4215;DHT22;2121;48.062;7.850;2022-07-06T07:21:31;18.70;99.90
4215;DHT22;2121;48.062;7.850;2022-07-06T07:23:57;18.90;99.90
4215;DHT22;2121;48.062;7.850;2022-07-06T07:26:22;19.00;99.40
4215;DHT22;2121;48.062;7.850;2022-07-06T07:28:48;18.90;99.10
4215;DHT22;2121;48.062;7.850;2022-07-06T07:31:14;18.80;99.40
4215;DHT22;2121;48.062;7.850;2022-07-06T07:33:39;18.80;99.00
4215;DHT22;2121;48.062;7.850;2022-07-06T07:36:05;18.80;99.00
4215;DHT22;2121;48.062;7.850;2022-07-06T07:38:31;18.90;99.00
4215;DHT22;2121;48.062;7.850;2022-07-06T07:40:57;19.10;98.90
4215;DHT22;2121;48.062;7.850;2022-07-06T07:43:23;19.10;98.60
4215;DHT22;2121;48.062;7.850;2022-07-06T07:45:48;19.20;98.60
4215;DHT22;2121;48.062;7.850;2022-07-06T07:48:14;19.20;98.20
4215;DHT22;2121;48.062;7.850;2022-07-06T07:50:41;19.20;98.70
4215;DHT22;2121;48.062;7.850;2022-07-06T07:53:07;19.30;97.70
4215;DHT22;2121;48.062;7.850;2022-07-06T07:55:33;19.50;98.30
4215;DHT22;2121;48.062;7.850;2022-07-06T07:57:59;19.50;97.70
4215;DHT22;2121;48.062;7.850;2022-07-06T08:00:25;19.50;97.70
4215;DHT22;2121;48.062;7.850;2022-07-06T08:02:51;19.70;97.90
4215;DHT22;2121;48.062;7.850;2022-07-06T08:05:17;19.70;96.90
4215;DHT22;2121;48.062;7.850;2022-07-06T08:07:44;19.60;97.20
4215;DHT22;2121;48.062;7.850;2022-07-06T08:10:10;19.80;96.90
4215;DHT22;2121;48.062;7.850;2022-07-06T08:12:36;19.80;96.40
4215;DHT22;2121;48.062;7.850;2022-07-06T08:15:03;19.90;97.20
4215;DHT22;2121;48.062;7.850;2022-07-06T08:17:30;19.90;96.00
4215;DHT22;2121;48.062;7.850;2022-07-06T08:19:56;20.00;96.50
4215;DHT22;2121;48.062;7.850;2022-07-06T08:22:22;20.00;95.40
4215;DHT22;2121;48.062;7.850;2022-07-06T08:24:48;20.00;95.60
4215;DHT22;2121;48.062;7.850;2022-07-06T08:27:14;20.20;95.60
4215;DHT22;2121;48.062;7.850;2022-07-06T08:29:40;20.20;95.40
4215;DHT22;2121;48.062;7.850;2022-07-06T08:32:06;20.40;95.30
4215;DHT22;2121;48.062;7.850;2022-07-06T08:34:32;20.40;95.20
4215;DHT22;2121;48.062;7.850;2022-07-06T08:36:58;20.40;95.40
4215;DHT22;2121;48.062;7.850;2022-07-06T08:39:24;20.40;95.10
4215;DHT22;2121;48.062;7.850;2022-07-06T08:41:50;20.50;95.20
4215;DHT22;2121;48.062;7.850;2022-07-06T08:44:17;20.60;94.60
4215;DHT22;2121;48.062;7.850;2022-07-06T08:46:44;20.60;94.70
4215;DHT22;2121;48.062;7.850;2022-07-06T08:49:15;20.60;94.70
4215;DHT22;2121;48.062;7.850;2022-07-06T08:51:42;20.80;95.00
4215;DHT22;2121;48.062;7.850;2022-07-06T08:54:11;21.10;95.20
4215;DHT22;2121;48.062;7.850;2022-07-06T08:56:37;21.20;93.70
4215;DHT22;2121;48.062;7.850;2022-07-06T08:59:04;21.20;93.40
4215;DHT22;2121;48.062;7.850;2022-07-06T09:01:33;21.30;93.30
4215;DHT22;2121;48.062;7.850;2022-07-06T09:04:00;21.40;93.30
4215;DHT22;2121;48.062;7.850;2022-07-06T09:06:28;21.50;92.90
4215;DHT22;2121;48.062;7.850;2022-07-06T09:08:56;21.60;92.60
4215;DHT22;2121;48.062;7.850;2022-07-06T09:11:23;21.70;92.30
4215;DHT22;2121;48.062;7.850;2022-07-06T09:13:50;21.80;92.30
4215;DHT22;2121;48.062;7.850;2022-07-06T09:16:17;21.60;91.90
4215;DHT22;2121;48.062;7.850;2022-07-06T09:18:46;21.80;92.30
4215;DHT22;2121;48.062;7.850;2022-07-06T09:21:26;22.00;91.60
4215;DHT22;2121;48.062;7.850;2022-07-06T09:23:55;22.20;91.00
4215;DHT22;2121;48.062;7.850;2022-07-06T09:26:22;22.50;89.70
4215;DHT22;2121;48.062;7.850;2022-07-06T09:28:48;22.60;87.70
4215;DHT22;2121;48.062;7.850;2022-07-06T09:31:14;22.60;89.00
4215;DHT22;2121;48.062;7.850;2022-07-06T09:33:54;22.50;88.20
4215;DHT22;2121;48.062;7.850;2022-07-06T09:36:47;22.40;87.10
4215;DHT22;2121;48.062;7.850;2022-07-06T09:39:23;22.40;86.60
4215;DHT22;2121;48.062;7.850;2022-07-06T09:41:55;22.40;88.10
4215;DHT22;2121;48.062;7.850;2022-07-06T09:44:26;22.50;89.20
4215;DHT22;2121;48.062;7.850;2022-07-06T09:46:55;22.60;86.90
4215;DHT22;2121;48.062;7.850;2022-07-06T09:49:22;22.70;88.30
4215;DHT22;2121;48.062;7.850;2022-07-06T09:51:57;22.90;88.00
4215;DHT22;2121;48.062;7.850;2022-07-06T09:54:25;23.00;83.10
4215;DHT22;2121;48.062;7.850;2022-07-06T09:56:51;23.00;81.40
4215;DHT22;2121;48.062;7.850;2022-07-06T09:59:26;23.10;82.20
4215;DHT22;2121;48.062;7.850;2022-07-06T10:01:58;23.40;83.50
4215;DHT22;2121;48.062;7.850;2022-07-06T10:04:26;23.80;83.30
4215;DHT22;2121;48.062;7.850;2022-07-06T10:06:52;23.60;80.40
4215;DHT22;2121;48.062;7.850;2022-07-06T10:09:20;23.50;81.40
4215;DHT22;2121;48.062;7.850;2022-07-06T10:11:52;23.50;83.00
4215;DHT22;2121;48.062;7.850;2022-07-06T10:14:21;23.50;81.60
4215;DHT22;2121;48.062;7.850;2022-07-06T10:16:52;23.60;81.00
4215;DHT22;2121;48.062;7.850;2022-07-06T10:19:20;24.00;79.80
4215;DHT22;2121;48.062;7.850;2022-07-06T10:21:47;24.20;80.70
4215;DHT22;2121;48.062;7.850;2022-07-06T10:24:13;24.00;81.50
4215;DHT22;2121;48.062;7.850;2022-07-06T10:26:41;23.70;81.10
4215;DHT22;2121;48.062;7.850;2022-07-06T10:29:08;23.60;82.70
4215;DHT22;2121;48.062;7.850;2022-07-06T10:31:37;23.30;80.00
4215;DHT22;2121;48.062;7.850;2022-07-06T10:34:07;23.50;83.10
4215;DHT22;2121;48.062;7.850;2022-07-06T10:36:42;23.80;80.80
4215;DHT22;2121;48.062;7.850;2022-07-06T10:39:10;23.90;82.80
4215;DHT22;2121;48.062;7.850;2022-07-06T10:41:55;24.20;83.10
4215;DHT22;2121;48.062;7.850;2022-07-06T10:44:26;24.00;82.50
4215;DHT22;2121;48.062;7.850;2022-07-06T10:46:56;23.90;83.20
4215;DHT22;2121;48.062;7.850;2022-07-06T10:49:25;23.80;83.50
4215;DHT22;2121;48.062;7.850;2022-07-06T10:51:52;24.10;82.40
4215;DHT22;2121;48.062;7.850;2022-07-06T10:54:19;24.30;80.50
4215;DHT22;2121;48.062;7.850;2022-07-06T10:56:50;24.10;82.10
4215;DHT22;2121;48.062;7.850;2022-07-06T10:59:23;24.00;82.00
4215;DHT22;2121;48.062;7.850;2022-07-06T11:04:36;24.60;79.80
4215;DHT22;2121;48.062;7.850;2022-07-06T11:07:08;24.50;80.00
4215;DHT22;2121;48.062;7.850;2022-07-06T11:09:36;25.00;78.40
4215;DHT22;2121;48.062;7.850;2022-07-06T11:12:32;25.00;78.70
4215;DHT22;2121;48.062;7.850;2022-07-06T11:15:00;24.60;80.10
4215;DHT22;2121;48.062;7.850;2022-07-06T11:17:27;24.80;79.40
4215;DHT22;2121;48.062;7.850;2022-07-06T11:19:59;25.10;78.30
4215;DHT22;2121;48.062;7.850;2022-07-06T11:22:37;25.30;78.10
4215;DHT22;2121;48.062;7.850;2022-07-06T11:25:06;25.50;78.10
4215;DHT22;2121;48.062;7.850;2022-07-06T11:27:34;25.60;77.20
4215;DHT22;2121;48.062;7.850;2022-07-06T11:30:00;26.00;76.20
4215;DHT22;2121;48.062;7.850;2022-07-06T11:32:27;26.10;76.70
4215;DHT22;2121;48.062;7.850;2022-07-06T11:34:53;26.20;76.60
4215;DHT22;2121;48.062;7.850;2022-07-06T11:37:19;25.70;75.10
4215;DHT22;2121;48.062;7.850;2022-07-06T11:39:47;25.50;74.60
4215;DHT22;2121;48.062;7.850;2022-07-06T11:42:17;26.60;73.60
4215;DHT22;2121;48.062;7.850;2022-07-06T11:44:44;27.80;72.60
4215;DHT22;2121;48.062;7.850;2022-07-06T11:47:11;26.90;73.90
4215;DHT22;2121;48.062;7.850;2022-07-06T11:49:39;27.30;74.30
4215;DHT22;2121;48.062;7.850;2022-07-06T11:52:13;28.20;73.70
4215;DHT22;2121;48.062;7.850;2022-07-06T11:54:42;29.20;71.00
4215;DHT22;2121;48.062;7.850;2022-07-06T11:57:10;28.70;70.40
4215;DHT22;2121;48.062;7.850;2022-07-06T11:59:38;28.70;70.10
4215;DHT22;2121;48.062;7.850;2022-07-06T12:02:12;28.30;70.40
4215;DHT22;2121;48.062;7.850;2022-07-06T12:04:42;28.40;71.10
4215;DHT22;2121;48.062;7.850;2022-07-06T12:07:10;29.00;70.70
4215;DHT22;2121;48.062;7.850;2022-07-06T12:09:41;30.00;71.10
4215;DHT22;2121;48.062;7.850;2022-07-06T12:12:09;30.60;67.90
4215;DHT22;2121;48.062;7.850;2022-07-06T12:14:37;28.90;66.60
4215;DHT22;2121;48.062;7.850;2022-07-06T12:19:31;28.90;68.70
4215;DHT22;2121;48.062;7.850;2022-07-06T12:21:57;30.20;68.00
4215;DHT22;2121;48.062;7.850;2022-07-06T12:24:26;30.40;68.70
4215;DHT22;2121;48.062;7.850;2022-07-06T12:26:54;28.60;68.80
4215;DHT22;2121;48.062;7.850;2022-07-06T12:29:21;27.80;69.70
4215;DHT22;2121;48.062;7.850;2022-07-06T12:34:27;30.10;70.40
4215;DHT22;2121;48.062;7.850;2022-07-06T12:36:58;31.60;66.40
4215;DHT22;2121;48.062;7.850;2022-07-06T12:39:27;31.90;64.30
4215;DHT22;2121;48.062;7.850;2022-07-06T12:44:33;31.50;65.70
4215;DHT22;2121;48.062;7.850;2022-07-06T12:47:09;30.40;67.20
4215;DHT22;2121;48.062;7.850;2022-07-06T12:49:37;30.80;68.50
4215;DHT22;2121;48.062;7.850;2022-07-06T12:54:43;33.10;66.40
4215;DHT22;2121;48.062;7.850;2022-07-06T12:57:23;32.30;63.50
4215;DHT22;2121;48.062;7.850;2022-07-06T12:59:55;30.80;64.20
4215;DHT22;2121;48.062;7.850;2022-07-06T13:02:35;30.60;66.30
4215;DHT22;2121;48.062;7.850;2022-07-06T13:05:07;30.30;68.10
4215;DHT22;2121;48.062;7.850;2022-07-06T13:07:38;30.20;65.90
4215;DHT22;2121;48.062;7.850;2022-07-06T13:10:10;30.60;67.90
4215;DHT22;2121;48.062;7.850;2022-07-06T13:12:37;32.70;64.20
4215;DHT22;2121;48.062;7.850;2022-07-06T13:15:05;33.10;64.10
4215;DHT22;2121;48.062;7.850;2022-07-06T13:17:32;33.10;63.30
4215;DHT22;2121;48.062;7.850;2022-07-06T13:19:59;32.30;62.10
4215;DHT22;2121;48.062;7.850;2022-07-06T13:22:25;32.80;62.80
4215;DHT22;2121;48.062;7.850;2022-07-06T13:24:51;34.50;63.20
4215;DHT22;2121;48.062;7.850;2022-07-06T13:27:16;36.30;59.70
4215;DHT22;2121;48.062;7.850;2022-07-06T13:29:42;37.00;58.00
4215;DHT22;2121;48.062;7.850;2022-07-06T13:32:08;37.50;56.80
4215;DHT22;2121;48.062;7.850;2022-07-06T13:34:34;35.20;57.00
4215;DHT22;2121;48.062;7.850;2022-07-06T13:37:04;32.30;59.30
4215;DHT22;2121;48.062;7.850;2022-07-06T13:39:31;31.30;62.10
4215;DHT22;2121;48.062;7.850;2022-07-06T13:41:57;30.90;63.60
4215;DHT22;2121;48.062;7.850;2022-07-06T13:44:23;31.40;62.20
4215;DHT22;2121;48.062;7.850;2022-07-06T13:46:49;31.20;63.00
4215;DHT22;2121;48.062;7.850;2022-07-06T13:49:15;30.30;64.20
4215;DHT22;2121;48.062;7.850;2022-07-06T13:51:41;30.20;64.30
4215;DHT22;2121;48.062;7.850;2022-07-06T13:54:07;30.60;64.40
4215;DHT22;2121;48.062;7.850;2022-07-06T13:56:33;32.50;63.90
4215;DHT22;2121;48.062;7.850;2022-07-06T13:58:59;32.60;61.50
4215;DHT22;2121;48.062;7.850;2022-07-06T14:01:25;33.80;60.40
4215;DHT22;2121;48.062;7.850;2022-07-06T14:03:51;31.80;60.00
4215;DHT22;2121;48.062;7.850;2022-07-06T14:06:18;30.70;62.80
4215;DHT22;2121;48.062;7.850;2022-07-06T14:08:44;31.60;62.80
4215;DHT22;2121;48.062;7.850;2022-07-06T14:11:11;30.00;63.40
4215;DHT22;2121;48.062;7.850;2022-07-06T14:13:37;31.60;64.00
4215;DHT22;2121;48.062;7.850;2022-07-06T14:16:04;33.20;61.30
4215;DHT22;2121;48.062;7.850;2022-07-06T14:18:31;31.90;61.00
4215;DHT22;2121;48.062;7.850;2022-07-06T14:20:57;30.80;62.80
4215;DHT22;2121;48.062;7.850;2022-07-06T14:23:23;31.00;64.80
4215;DHT22;2121;48.062;7.850;2022-07-06T14:25:50;32.30;64.90
4215;DHT22;2121;48.062;7.850;2022-07-06T14:28:16;35.60;59.30
4215;DHT22;2121;48.062;7.850;2022-07-06T14:30:43;38.10;57.20
4215;DHT22;2121;48.062;7.850;2022-07-06T14:33:11;36.30;54.60
4215;DHT22;2121;48.062;7.850;2022-07-06T14:35:48;32.40;59.00
4215;DHT22;2121;48.062;7.850;2022-07-06T14:38:17;31.80;62.80
4215;DHT22;2121;48.062;7.850;2022-07-06T14:40:43;32.20;59.60
4215;DHT22;2121;48.062;7.850;2022-07-06T14:43:10;31.30;59.60
4215;DHT22;2121;48.062;7.850;2022-07-06T14:45:36;31.50;62.50
4215;DHT22;2121;48.062;7.850;2022-07-06T14:48:03;32.50;61.60
4215;DHT22;2121;48.062;7.850;2022-07-06T14:50:31;34.90;58.00
4215;DHT22;2121;48.062;7.850;2022-07-06T14:52:57;34.70;58.50
4215;DHT22;2121;48.062;7.850;2022-07-06T14:55:23;34.40;59.00
4215;DHT22;2121;48.062;7.850;2022-07-06T14:57:49;34.70;57.90
4215;DHT22;2121;48.062;7.850;2022-07-06T15:00:15;34.50;57.80
4215;DHT22;2121;48.062;7.850;2022-07-06T15:02:42;34.10;57.80
4215;DHT22;2121;48.062;7.850;2022-07-06T15:05:10;33.00;58.40
4215;DHT22;2121;48.062;7.850;2022-07-06T15:07:37;33.50;58.60
4215;DHT22;2121;48.062;7.850;2022-07-06T15:10:03;33.90;57.40
4215;DHT22;2121;48.062;7.850;2022-07-06T15:12:30;35.60;55.70
4215;DHT22;2121;48.062;7.850;2022-07-06T15:14:56;35.70;55.80
4215;DHT22;2121;48.062;7.850;2022-07-06T15:17:22;36.20;55.00
4215;DHT22;2121;48.062;7.850;2022-07-06T15:19:48;35.80;53.70
4215;DHT22;2121;48.062;7.850;2022-07-06T15:22:14;34.60;53.80
4215;DHT22;2121;48.062;7.850;2022-07-06T15:24:39;32.70;56.20
4215;DHT22;2121;48.062;7.850;2022-07-06T15:27:06;30.70;57.70
4215;DHT22;2121;48.062;7.850;2022-07-06T15:29:32;27.70;62.40
4215;DHT22;2121;48.062;7.850;2022-07-06T15:31:59;28.60;64.10
4215;DHT22;2121;48.062;7.850;2022-07-06T15:34:25;30.10;60.30
4215;DHT22;2121;48.062;7.850;2022-07-06T15:36:51;30.10;61.60
4215;DHT22;2121;48.062;7.850;2022-07-06T15:39:17;29.70;61.30
4215;DHT22;2121;48.062;7.850;2022-07-06T15:41:43;28.70;61.00
4215;DHT22;2121;48.062;7.850;2022-07-06T15:44:09;26.90;64.00
4215;DHT22;2121;48.062;7.850;2022-07-06T15:46:35;26.10;65.50
4215;DHT22;2121;48.062;7.850;2022-07-06T15:49:02;25.90;64.70
4215;DHT22;2121;48.062;7.850;2022-07-06T15:51:28;25.30;65.20
4215;DHT22;2121;48.062;7.850;2022-07-06T15:53:54;25.40;66.30
4215;DHT22;2121;48.062;7.850;2022-07-06T15:56:20;25.50;66.50
4215;DHT22;2121;48.062;7.850;2022-07-06T15:58:46;25.40;64.40
4215;DHT22;2121;48.062;7.850;2022-07-06T16:01:12;25.30;64.10
4215;DHT22;2121;48.062;7.850;2022-07-06T16:03:39;25.50;63.50
4215;DHT22;2121;48.062;7.850;2022-07-06T16:06:06;25.30;63.70
4215;DHT22;2121;48.062;7.850;2022-07-06T16:08:32;24.90;64.40
4215;DHT22;2121;48.062;7.850;2022-07-06T16:10:58;25.00;61.80
4215;DHT22;2121;48.062;7.850;2022-07-06T16:13:24;24.50;62.20
4215;DHT22;2121;48.062;7.850;2022-07-06T16:15:50;25.20;62.60
4215;DHT22;2121;48.062;7.850;2022-07-06T16:18:16;26.00;61.20